sensor_id;sensor_type;location;lat;lon;timestamp;P1;durP1;ratioP1;P2;durP2;ratioP2
15616;SDS011;7908;51.688;7.130;2022-07-29T00:01:46;3.97;;;1.20;;
15616;SDS011;7908;51.688;7.130;2022-07-29T00:04:15;4.83;;;1.20;;
15616;SDS011;7908;51.688;7.130;2022-07-29T00:06:51;4.27;;;1.17;;
15616;SDS011;7908;51.688;7.130;2022-07-29T00:09:20;3.63;;;1.07;;
15616;SDS011;7908;51.688;7.130;2022-07-29T00:11:49;3.30;;;1.00;;
15616;SDS011;7908;51.688;7.130;2022-07-29T00:14:26;5.27;;;1.17;;
15616;SDS011;7908;51.688;7.130;2022-07-29T00:16:57;3.20;;;1.10;;
15616;SDS011;7908;51.688;7.130;2022-07-29T00:19:29;3.40;;;1.07;;
15616;SDS011;7908;51.688;7.130;2022-07-29T00:21:59;5.90;;;1.10;;
15616;SDS011;7908;51.688;7.130;2022-07-29T00:24:28;3.00;;;0.87;;
15616;SDS011;7908;51.688;7.130;2022-07-29T00:27:05;5.33;;;1.00;;
15616;SDS011;7908;51.688;7.130;2022-07-29T00:29:38;4.80;;;1.30;;
15616;SDS011;7908;51.688;7.130;2022-07-29T00:32:07;3.97;;;0.90;;
15616;SDS011;7908;51.688;7.130;2022-07-29T00:34:36;2.30;;;0.90;;
15616;SDS011;7908;51.688;7.130;2022-07-29T00:37:24;5.50;;;1.10;;
15616;SDS011;7908;51.688;7.130;2022-07-29T00:39:54;3.37;;;0.90;;
15616;SDS011;7908;51.688;7.130;2022-07-29T00:42:23;2.83;;;1.00;;
15616;SDS011;7908;51.688;7.130;2022-07-29T00:44:52;4.87;;;1.30;;
15616;SDS011;7908;51.688;7.130;2022-07-29T00:47:20;3.63;;;1.13;;
15616;SDS011;7908;51.688;7.130;2022-07-29T00:49:49;4.53;;;1.20;;
15616;SDS011;7908;51.688;7.130;2022-07-29T00:52:18;4.73;;;1.00;;
15616;SDS011;7908;51.688;7.130;2022-07-29T00:54:55;2.17;;;1.00;;
15616;SDS011;7908;51.688;7.130;2022-07-29T00:57:37;5.83;;;1.40;;
15616;SDS011;7908;51.688;7.130;2022-07-29T01:00:10;4.97;;;1.13;;
15616;SDS011;7908;51.688;7.130;2022-07-29T01:02:46;1.50;;;0.83;;
15616;SDS011;7908;51.688;7.130;2022-07-29T01:05:19;3.03;;;1.20;;
15616;SDS011;7908;51.688;7.130;2022-07-29T01:08:12;2.67;;;1.10;;
15616;SDS011;7908;51.688;7.130;2022-07-29T01:10:44;2.97;;;1.10;;
15616;SDS011;7908;51.688;7.130;2022-07-29T01:13:15;4.93;;;1.20;;
15616;SDS011;7908;51.688;7.130;2022-07-29T01:15:47;2.70;;;1.17;;
15616;SDS011;7908;51.688;7.130;2022-07-29T01:18:28;2.63;;;1.10;;
15616;SDS011;7908;51.688;7.130;2022-07-29T01:21:09;2.63;;;1.00;;
15616;SDS011;7908;51.688;7.130;2022-07-29T01:24:20;7.43;;;4.33;;
15616;SDS011;7908;51.688;7.130;2022-07-29T01:27:16;3.93;;;1.03;;
15616;SDS011;7908;51.688;7.130;2022-07-29T01:30:04;4.00;;;1.20;;
15616;SDS011;7908;51.688;7.130;2022-07-29T01:32:41;3.73;;;1.50;;
15616;SDS011;7908;51.688;7.130;2022-07-29T01:35:17;3.60;;;1.23;;
15616;SDS011;7908;51.688;7.130;2022-07-29T01:37:55;3.93;;;1.20;;
15616;SDS011;7908;51.688;7.130;2022-07-29T01:40:34;2.93;;;1.17;;
15616;SDS011;7908;51.688;7.130;2022-07-29T01:43:09;3.40;;;1.27;;
15616;SDS011;7908;51.688;7.130;2022-07-29T01:45:45;2.47;;;1.10;;
15616;SDS011;7908;51.688;7.130;2022-07-29T01:48:19;7.27;;;1.30;;
15616;SDS011;7908;51.688;7.130;2022-07-29T01:50:52;3.93;;;1.10;;
15616;SDS011;7908;51.688;7.130;2022-07-29T01:53:28;3.77;;;1.40;;
15616;SDS011;7908;51.688;7.130;2022-07-29T01:56:04;3.50;;;1.20;;
15616;SDS011;7908;51.688;7.130;2022-07-29T01:58:34;4.27;;;1.10;;
15616;SDS011;7908;51.688;7.130;2022-07-29T02:01:08;2.07;;;1.37;;
15616;SDS011;7908;51.688;7.130;2022-07-29T02:03:41;2.50;;;1.33;;
15616;SDS011;7908;51.688;7.130;2022-07-29T02:06:15;2.47;;;1.20;;
15616;SDS011;7908;51.688;7.130;2022-07-29T02:08:46;4.93;;;1.27;;
15616;SDS011;7908;51.688;7.130;2022-07-29T02:11:16;3.40;;;1.30;;
15616;SDS011;7908;51.688;7.130;2022-07-29T02:13:48;3.43;;;1.10;;
15616;SDS011;7908;51.688;7.130;2022-07-29T02:16:22;3.37;;;1.30;;
15616;SDS011;7908;51.688;7.130;2022-07-29T02:18:53;3.73;;;1.10;;
15616;SDS011;7908;51.688;7.130;2022-07-29T02:21:24;5.00;;;1.27;;
15616;SDS011;7908;51.688;7.130;2022-07-29T02:23:54;3.10;;;1.20;;
15616;SDS011;7908;51.688;7.130;2022-07-29T02:26:30;2.87;;;1.10;;
15616;SDS011;7908;51.688;7.130;2022-07-29T02:29:01;4.77;;;1.10;;
15616;SDS011;7908;51.688;7.130;2022-07-29T02:31:33;6.00;;;1.10;;
15616;SDS011;7908;51.688;7.130;2022-07-29T02:34:05;2.77;;;1.30;;
15616;SDS011;7908;51.688;7.130;2022-07-29T02:36:45;2.03;;;1.00;;
15616;SDS011;7908;51.688;7.130;2022-07-29T02:39:15;3.40;;;1.00;;
15616;SDS011;7908;51.688;7.130;2022-07-29T02:41:46;3.27;;;1.20;;
15616;SDS011;7908;51.688;7.130;2022-07-29T02:44:19;2.93;;;1.10;;
15616;SDS011;7908;51.688;7.130;2022-07-29T02:47:04;3.73;;;1.30;;
15616;SDS011;7908;51.688;7.130;2022-07-29T02:49:40;4.20;;;1.30;;
15616;SDS011;7908;51.688;7.130;2022-07-29T02:52:16;4.20;;;1.23;;
15616;SDS011;7908;51.688;7.130;2022-07-29T02:54:49;2.30;;;1.20;;
15616;SDS011;7908;51.688;7.130;2022-07-29T02:57:29;3.43;;;1.07;;
15616;SDS011;7908;51.688;7.130;2022-07-29T03:00:20;2.87;;;1.00;;
15616;SDS011;7908;51.688;7.130;2022-07-29T03:02:53;2.73;;;1.27;;
15616;SDS011;7908;51.688;7.130;2022-07-29T03:05:29;2.87;;;1.10;;
15616;SDS011;7908;51.688;7.130;2022-07-29T03:08:00;2.67;;;1.13;;
15616;SDS011;7908;51.688;7.130;2022-07-29T03:10:31;3.53;;;1.23;;
15616;SDS011;7908;51.688;7.130;2022-07-29T03:13:05;2.20;;;1.20;;
15616;SDS011;7908;51.688;7.130;2022-07-29T03:15:35;4.60;;;1.30;;
15616;SDS011;7908;51.688;7.130;2022-07-29T03:18:08;2.30;;;1.07;;
15616;SDS011;7908;51.688;7.130;2022-07-29T03:20:38;5.40;;;1.30;;
15616;SDS011;7908;51.688;7.130;2022-07-29T03:23:07;2.13;;;1.10;;
15616;SDS011;7908;51.688;7.130;2022-07-29T03:25:36;6.67;;;1.30;;
15616;SDS011;7908;51.688;7.130;2022-07-29T03:28:07;3.60;;;1.60;;
15616;SDS011;7908;51.688;7.130;2022-07-29T03:30:41;3.93;;;1.40;;
15616;SDS011;7908;51.688;7.130;2022-07-29T03:33:12;5.40;;;1.10;;
15616;SDS011;7908;51.688;7.130;2022-07-29T03:35:41;5.63;;;1.10;;
15616;SDS011;7908;51.688;7.130;2022-07-29T03:38:10;3.23;;;1.17;;
15616;SDS011;7908;51.688;7.130;2022-07-29T03:40:42;3.00;;;1.30;;
15616;SDS011;7908;51.688;7.130;2022-07-29T03:43:16;1.97;;;1.37;;
15616;SDS011;7908;51.688;7.130;2022-07-29T03:45:47;2.33;;;1.40;;
15616;SDS011;7908;51.688;7.130;2022-07-29T03:48:19;3.33;;;1.30;;
15616;SDS011;7908;51.688;7.130;2022-07-29T03:50:51;7.10;;;1.10;;
15616;SDS011;7908;51.688;7.130;2022-07-29T03:53:23;4.33;;;1.20;;
15616;SDS011;7908;51.688;7.130;2022-07-29T03:55:52;2.97;;;1.30;;
15616;SDS011;7908;51.688;7.130;2022-07-29T03:58:31;4.60;;;1.30;;
15616;SDS011;7908;51.688;7.130;2022-07-29T04:01:01;3.80;;;1.50;;
15616;SDS011;7908;51.688;7.130;2022-07-29T04:03:34;4.20;;;1.40;;
15616;SDS011;7908;51.688;7.130;2022-07-29T04:06:04;2.70;;;1.50;;
15616;SDS011;7908;51.688;7.130;2022-07-29T04:08:35;3.63;;;1.30;;
15616;SDS011;7908;51.688;7.130;2022-07-29T04:11:05;3.47;;;1.30;;
15616;SDS011;7908;51.688;7.130;2022-07-29T04:13:35;5.97;;;1.20;;
15616;SDS011;7908;51.688;7.130;2022-07-29T04:16:04;5.67;;;1.57;;
15616;SDS011;7908;51.688;7.130;2022-07-29T04:18:35;5.03;;;1.20;;
15616;SDS011;7908;51.688;7.130;2022-07-29T04:21:09;1.67;;;1.17;;
15616;SDS011;7908;51.688;7.130;2022-07-29T04:23:39;6.80;;;1.37;;
15616;SDS011;7908;51.688;7.130;2022-07-29T04:26:19;4.80;;;1.63;;
15616;SDS011;7908;51.688;7.130;2022-07-29T04:28:52;5.10;;;1.30;;
15616;SDS011;7908;51.688;7.130;2022-07-29T04:31:21;2.87;;;1.37;;
15616;SDS011;7908;51.688;7.130;2022-07-29T04:33:55;3.33;;;1.17;;
15616;SDS011;7908;51.688;7.130;2022-07-29T04:36:29;4.70;;;1.00;;
15616;SDS011;7908;51.688;7.130;2022-07-29T04:38:59;2.77;;;1.50;;
15616;SDS011;7908;51.688;7.130;2022-07-29T04:41:31;4.50;;;1.23;;
15616;SDS011;7908;51.688;7.130;2022-07-29T04:44:08;2.90;;;1.30;;
15616;SDS011;7908;51.688;7.130;2022-07-29T04:46:37;3.27;;;1.23;;
15616;SDS011;7908;51.688;7.130;2022-07-29T04:49:07;5.50;;;1.67;;
15616;SDS011;7908;51.688;7.130;2022-07-29T04:51:39;9.57;;;2.27;;
15616;SDS011;7908;51.688;7.130;2022-07-29T04:54:08;5.10;;;2.20;;
15616;SDS011;7908;51.688;7.130;2022-07-29T04:56:37;4.97;;;1.53;;
15616;SDS011;7908;51.688;7.130;2022-07-29T04:59:05;4.43;;;2.10;;
15616;SDS011;7908;51.688;7.130;2022-07-29T05:01:34;4.80;;;1.97;;
15616;SDS011;7908;51.688;7.130;2022-07-29T05:04:03;4.73;;;2.03;;
15616;SDS011;7908;51.688;7.130;2022-07-29T05:06:33;8.87;;;2.40;;
15616;SDS011;7908;51.688;7.130;2022-07-29T05:09:06;5.57;;;2.37;;
15616;SDS011;7908;51.688;7.130;2022-07-29T05:11:35;4.17;;;2.40;;
15616;SDS011;7908;51.688;7.130;2022-07-29T05:14:04;4.13;;;2.40;;
15616;SDS011;7908;51.688;7.130;2022-07-29T05:16:36;6.27;;;3.00;;
15616;SDS011;7908;51.688;7.130;2022-07-29T05:19:05;3.27;;;2.57;;
15616;SDS011;7908;51.688;7.130;2022-07-29T05:21:41;4.83;;;2.47;;
15616;SDS011;7908;51.688;7.130;2022-07-29T05:24:10;4.20;;;3.07;;
15616;SDS011;7908;51.688;7.130;2022-07-29T05:26:42;4.53;;;3.20;;
15616;SDS011;7908;51.688;7.130;2022-07-29T05:29:12;4.87;;;3.20;;
15616;SDS011;7908;51.688;7.130;2022-07-29T05:32:01;8.10;;;3.50;;
15616;SDS011;7908;51.688;7.130;2022-07-29T05:34:30;7.00;;;3.40;;
15616;SDS011;7908;51.688;7.130;2022-07-29T05:37:00;6.17;;;3.77;;
15616;SDS011;7908;51.688;7.130;2022-07-29T05:39:31;8.27;;;3.80;;
15616;SDS011;7908;51.688;7.130;2022-07-29T05:42:16;4.50;;;3.90;;
15616;SDS011;7908;51.688;7.130;2022-07-29T05:44:45;7.27;;;4.03;;
15616;SDS011;7908;51.688;7.130;2022-07-29T05:47:14;7.73;;;4.00;;
15616;SDS011;7908;51.688;7.130;2022-07-29T05:49:44;9.07;;;4.30;;
15616;SDS011;7908;51.688;7.130;2022-07-29T05:52:14;4.67;;;4.10;;
15616;SDS011;7908;51.688;7.130;2022-07-29T05:54:45;5.77;;;4.10;;
15616;SDS011;7908;51.688;7.130;2022-07-29T05:57:16;6.73;;;4.37;;
15616;SDS011;7908;51.688;7.130;2022-07-29T05:59:50;6.67;;;4.10;;
15616;SDS011;7908;51.688;7.130;2022-07-29T06:02:21;9.33;;;5.50;;
15616;SDS011;7908;51.688;7.130;2022-07-29T06:04:53;16.60;;;12.93;;
15616;SDS011;7908;51.688;7.130;2022-07-29T06:07:23;7.87;;;5.33;;
15616;SDS011;7908;51.688;7.130;2022-07-29T06:09:59;8.53;;;3.90;;
15616;SDS011;7908;51.688;7.130;2022-07-29T06:12:36;5.90;;;4.07;;
15616;SDS011;7908;51.688;7.130;2022-07-29T06:15:05;5.27;;;3.40;;
15616;SDS011;7908;51.688;7.130;2022-07-29T06:17:36;5.27;;;3.43;;
15616;SDS011;7908;51.688;7.130;2022-07-29T06:20:24;5.97;;;3.33;;
15616;SDS011;7908;51.688;7.130;2022-07-29T06:22:55;6.97;;;3.37;;
15616;SDS011;7908;51.688;7.130;2022-07-29T06:25:27;5.27;;;3.17;;
15616;SDS011;7908;51.688;7.130;2022-07-29T06:28:01;7.13;;;3.53;;
15616;SDS011;7908;51.688;7.130;2022-07-29T06:30:31;4.30;;;2.70;;
15616;SDS011;7908;51.688;7.130;2022-07-29T06:33:02;4.40;;;3.07;;
15616;SDS011;7908;51.688;7.130;2022-07-29T06:35:38;4.57;;;2.80;;
15616;SDS011;7908;51.688;7.130;2022-07-29T06:38:20;3.80;;;3.10;;
15616;SDS011;7908;51.688;7.130;2022-07-29T06:41:00;3.60;;;2.97;;
15616;SDS011;7908;51.688;7.130;2022-07-29T06:43:30;5.33;;;3.00;;
15616;SDS011;7908;51.688;7.130;2022-07-29T06:46:16;4.37;;;2.87;;
15616;SDS011;7908;51.688;7.130;2022-07-29T06:48:49;4.70;;;2.33;;
15616;SDS011;7908;51.688;7.130;2022-07-29T06:51:26;4.57;;;2.87;;
15616;SDS011;7908;51.688;7.130;2022-07-29T06:53:59;4.73;;;2.60;;
15616;SDS011;7908;51.688;7.130;2022-07-29T06:56:32;3.73;;;2.40;;
15616;SDS011;7908;51.688;7.130;2022-07-29T06:59:06;6.80;;;2.60;;
15616;SDS011;7908;51.688;7.130;2022-07-29T07:01:36;3.67;;;2.70;;
15616;SDS011;7908;51.688;7.130;2022-07-29T07:04:10;6.87;;;2.63;;
15616;SDS011;7908;51.688;7.130;2022-07-29T07:06:42;5.10;;;2.30;;
15616;SDS011;7908;51.688;7.130;2022-07-29T07:09:12;6.53;;;2.50;;
15616;SDS011;7908;51.688;7.130;2022-07-29T07:11:41;5.33;;;2.53;;
15616;SDS011;7908;51.688;7.130;2022-07-29T07:14:14;3.87;;;2.20;;
15616;SDS011;7908;51.688;7.130;2022-07-29T07:16:48;5.97;;;2.20;;
15616;SDS011;7908;51.688;7.130;2022-07-29T07:19:20;4.50;;;2.37;;
15616;SDS011;7908;51.688;7.130;2022-07-29T07:21:52;7.30;;;2.30;;
15616;SDS011;7908;51.688;7.130;2022-07-29T07:24:24;7.23;;;2.20;;
15616;SDS011;7908;51.688;7.130;2022-07-29T07:26:58;6.10;;;2.33;;
15616;SDS011;7908;51.688;7.130;2022-07-29T07:29:33;3.97;;;2.53;;
15616;SDS011;7908;51.688;7.130;2022-07-29T07:32:11;4.20;;;2.20;;
15616;SDS011;7908;51.688;7.130;2022-07-29T07:34:44;4.20;;;2.10;;
15616;SDS011;7908;51.688;7.130;2022-07-29T07:37:15;5.03;;;2.00;;
15616;SDS011;7908;51.688;7.130;2022-07-29T07:39:51;5.77;;;1.80;;
15616;SDS011;7908;51.688;7.130;2022-07-29T07:42:23;2.50;;;2.00;;
15616;SDS011;7908;51.688;7.130;2022-07-29T07:44:54;3.80;;;1.83;;
15616;SDS011;7908;51.688;7.130;2022-07-29T07:47:42;6.63;;;2.20;;
15616;SDS011;7908;51.688;7.130;2022-07-29T07:50:14;3.73;;;1.73;;
15616;SDS011;7908;51.688;7.130;2022-07-29T07:52:48;5.27;;;1.90;;
15616;SDS011;7908;51.688;7.130;2022-07-29T07:55:26;6.33;;;2.00;;
15616;SDS011;7908;51.688;7.130;2022-07-29T07:58:19;2.70;;;2.00;;
15616;SDS011;7908;51.688;7.130;2022-07-29T08:00:55;3.83;;;2.47;;
15616;SDS011;7908;51.688;7.130;2022-07-29T08:03:30;4.37;;;2.30;;
15616;SDS011;7908;51.688;7.130;2022-07-29T08:06:00;5.10;;;2.20;;
15616;SDS011;7908;51.688;7.130;2022-07-29T08:08:34;3.03;;;1.90;;
15616;SDS011;7908;51.688;7.130;2022-07-29T08:11:04;4.03;;;2.20;;
15616;SDS011;7908;51.688;7.130;2022-07-29T08:13:36;2.53;;;2.00;;
15616;SDS011;7908;51.688;7.130;2022-07-29T08:16:11;4.67;;;2.17;;
15616;SDS011;7908;51.688;7.130;2022-07-29T08:18:43;6.10;;;2.00;;
15616;SDS011;7908;51.688;7.130;2022-07-29T08:21:13;4.80;;;2.10;;
15616;SDS011;7908;51.688;7.130;2022-07-29T08:23:43;4.07;;;2.30;;
15616;SDS011;7908;51.688;7.130;2022-07-29T08:26:27;4.00;;;2.20;;
15616;SDS011;7908;51.688;7.130;2022-07-29T08:28:56;2.80;;;1.90;;
15616;SDS011;7908;51.688;7.130;2022-07-29T08:31:26;5.20;;;2.40;;
15616;SDS011;7908;51.688;7.130;2022-07-29T08:33:58;2.60;;;1.93;;
15616;SDS011;7908;51.688;7.130;2022-07-29T08:36:27;5.43;;;1.97;;
15616;SDS011;7908;51.688;7.130;2022-07-29T08:38:56;5.37;;;2.20;;
15616;SDS011;7908;51.688;7.130;2022-07-29T08:41:28;4.93;;;2.00;;
15616;SDS011;7908;51.688;7.130;2022-07-29T08:44:00;4.38;;;2.35;;
15616;SDS011;7908;51.688;7.130;2022-07-29T08:46:29;6.10;;;2.40;;
15616;SDS011;7908;51.688;7.130;2022-07-29T08:49:05;5.67;;;2.47;;
15616;SDS011;7908;51.688;7.130;2022-07-29T08:51:35;9.35;;;2.63;;
15616;SDS011;7908;51.688;7.130;2022-07-29T08:54:18;4.82;;;2.58;;
15616;SDS011;7908;51.688;7.130;2022-07-29T08:56:51;6.20;;;3.08;;
15616;SDS011;7908;51.688;7.130;2022-07-29T08:59:25;4.53;;;2.60;;
15616;SDS011;7908;51.688;7.130;2022-07-29T09:01:56;5.65;;;2.55;;
15616;SDS011;7908;51.688;7.130;2022-07-29T09:04:30;4.63;;;2.50;;
15616;SDS011;7908;51.688;7.130;2022-07-29T09:07:03;8.82;;;2.40;;
15616;SDS011;7908;51.688;7.130;2022-07-29T09:09:34;5.28;;;2.60;;
15616;SDS011;7908;51.688;7.130;2022-07-29T09:12:10;6.27;;;2.67;;
15616;SDS011;7908;51.688;7.130;2022-07-29T09:14:55;6.63;;;2.53;;
15616;SDS011;7908;51.688;7.130;2022-07-29T09:20:14;9.20;;;3.33;;
15616;SDS011;7908;51.688;7.130;2022-07-29T09:22:46;4.73;;;2.70;;
15616;SDS011;7908;51.688;7.130;2022-07-29T09:25:33;7.23;;;3.10;;
15616;SDS011;7908;51.688;7.130;2022-07-29T09:28:08;5.23;;;3.20;;
15616;SDS011;7908;51.688;7.130;2022-07-29T09:30:49;5.73;;;3.30;;
15616;SDS011;7908;51.688;7.130;2022-07-29T09:33:31;6.97;;;3.37;;
15616;SDS011;7908;51.688;7.130;2022-07-29T09:36:02;5.43;;;2.90;;
15616;SDS011;7908;51.688;7.130;2022-07-29T09:38:38;5.73;;;2.77;;
15616;SDS011;7908;51.688;7.130;2022-07-29T09:41:08;7.77;;;2.77;;
15616;SDS011;7908;51.688;7.130;2022-07-29T09:43:38;5.53;;;3.17;;
15616;SDS011;7908;51.688;7.130;2022-07-29T09:46:12;5.40;;;2.83;;
15616;SDS011;7908;51.688;7.130;2022-07-29T09:48:41;8.20;;;2.97;;
15616;SDS011;7908;51.688;7.130;2022-07-29T09:51:34;5.80;;;2.83;;
15616;SDS011;7908;51.688;7.130;2022-07-29T09:56:49;9.27;;;3.40;;
15616;SDS011;7908;51.688;7.130;2022-07-29T09:59:24;5.87;;;3.10;;
15616;SDS011;7908;51.688;7.130;2022-07-29T10:01:55;5.83;;;2.63;;
15616;SDS011;7908;51.688;7.130;2022-07-29T10:04:41;5.50;;;2.93;;
15616;SDS011;7908;51.688;7.130;2022-07-29T10:07:15;5.07;;;3.00;;
15616;SDS011;7908;51.688;7.130;2022-07-29T10:09:49;8.30;;;3.37;;
15616;SDS011;7908;51.688;7.130;2022-07-29T10:12:25;8.57;;;3.57;;
15616;SDS011;7908;51.688;7.130;2022-07-29T10:14:56;7.13;;;3.67;;
15616;SDS011;7908;51.688;7.130;2022-07-29T10:17:27;8.33;;;3.27;;
15616;SDS011;7908;51.688;7.130;2022-07-29T10:20:00;6.07;;;3.63;;
15616;SDS011;7908;51.688;7.130;2022-07-29T10:22:29;8.27;;;3.87;;
15616;SDS011;7908;51.688;7.130;2022-07-29T10:25:19;7.80;;;3.40;;
15616;SDS011;7908;51.688;7.130;2022-07-29T10:27:51;9.30;;;3.47;;
15616;SDS011;7908;51.688;7.130;2022-07-29T10:30:23;4.37;;;3.47;;
15616;SDS011;7908;51.688;7.130;2022-07-29T10:33:15;6.00;;;3.13;;
15616;SDS011;7908;51.688;7.130;2022-07-29T10:36:07;6.47;;;3.60;;
15616;SDS011;7908;51.688;7.130;2022-07-29T10:38:52;10.63;;;3.30;;
15616;SDS011;7908;51.688;7.130;2022-07-29T10:41:56;4.43;;;3.10;;
15616;SDS011;7908;51.688;7.130;2022-07-29T10:44:34;9.53;;;3.50;;
15616;SDS011;7908;51.688;7.130;2022-07-29T10:47:23;6.83;;;3.80;;
15616;SDS011;7908;51.688;7.130;2022-07-29T10:49:57;5.70;;;3.50;;
15616;SDS011;7908;51.688;7.130;2022-07-29T10:55:33;5.90;;;3.30;;
15616;SDS011;7908;51.688;7.130;2022-07-29T10:58:16;6.03;;;3.30;;
15616;SDS011;7908;51.688;7.130;2022-07-29T11:00:49;4.73;;;3.03;;
15616;SDS011;7908;51.688;7.130;2022-07-29T11:06:22;4.23;;;2.70;;
15616;SDS011;7908;51.688;7.130;2022-07-29T11:09:20;5.67;;;3.27;;
15616;SDS011;7908;51.688;7.130;2022-07-29T11:12:03;5.33;;;3.33;;
15616;SDS011;7908;51.688;7.130;2022-07-29T11:15:17;4.47;;;3.00;;
15616;SDS011;7908;51.688;7.130;2022-07-29T11:18:03;6.63;;;3.53;;
15616;SDS011;7908;51.688;7.130;2022-07-29T11:20:43;5.70;;;3.13;;
15616;SDS011;7908;51.688;7.130;2022-07-29T11:23:21;6.37;;;3.57;;
15616;SDS011;7908;51.688;7.130;2022-07-29T11:26:18;7.90;;;3.00;;
15616;SDS011;7908;51.688;7.130;2022-07-29T11:28:52;5.80;;;3.00;;
15616;SDS011;7908;51.688;7.130;2022-07-29T11:31:33;6.50;;;3.17;;
15616;SDS011;7908;51.688;7.130;2022-07-29T11:40:10;4.10;;;2.63;;
15616;SDS011;7908;51.688;7.130;2022-07-29T11:42:47;3.97;;;2.50;;
15616;SDS011;7908;51.688;7.130;2022-07-29T11:45:18;4.20;;;2.70;;
15616;SDS011;7908;51.688;7.130;2022-07-29T11:48:14;4.63;;;3.10;;
15616;SDS011;7908;51.688;7.130;2022-07-29T11:50:58;5.53;;;2.72;;
15616;SDS011;7908;51.688;7.130;2022-07-29T11:53:28;3.72;;;2.35;;
15616;SDS011;7908;51.688;7.130;2022-07-29T11:55:59;6.97;;;2.65;;
15616;SDS011;7908;51.688;7.130;2022-07-29T11:58:30;3.25;;;2.40;;
15616;SDS011;7908;51.688;7.130;2022-07-29T12:01:03;4.50;;;3.20;;
15616;SDS011;7908;51.688;7.130;2022-07-29T12:03:37;5.38;;;2.65;;
15616;SDS011;7908;51.688;7.130;2022-07-29T12:06:13;4.30;;;2.25;;
15616;SDS011;7908;51.688;7.130;2022-07-29T12:08:46;4.35;;;2.58;;
15616;SDS011;7908;51.688;7.130;2022-07-29T12:11:18;5.35;;;3.00;;
15616;SDS011;7908;51.688;7.130;2022-07-29T12:13:57;4.55;;;2.42;;
15616;SDS011;7908;51.688;7.130;2022-07-29T12:16:34;4.65;;;2.80;;
15616;SDS011;7908;51.688;7.130;2022-07-29T12:19:17;5.70;;;3.00;;
15616;SDS011;7908;51.688;7.130;2022-07-29T12:21:51;4.25;;;2.40;;
15616;SDS011;7908;51.688;7.130;2022-07-29T12:24:30;4.68;;;2.58;;
15616;SDS011;7908;51.688;7.130;2022-07-29T12:27:11;6.25;;;2.85;;
15616;SDS011;7908;51.688;7.130;2022-07-29T12:29:55;4.82;;;2.35;;
15616;SDS011;7908;51.688;7.130;2022-07-29T12:32:31;3.65;;;2.25;;
15616;SDS011;7908;51.688;7.130;2022-07-29T12:35:04;5.70;;;2.40;;
15616;SDS011;7908;51.688;7.130;2022-07-29T12:37:38;5.97;;;2.53;;
15616;SDS011;7908;51.688;7.130;2022-07-29T12:40:09;3.67;;;2.20;;
15616;SDS011;7908;51.688;7.130;2022-07-29T12:42:41;4.30;;;2.42;;
15616;SDS011;7908;51.688;7.130;2022-07-29T12:45:34;8.00;;;2.58;;
15616;SDS011;7908;51.688;7.130;2022-07-29T12:48:05;4.93;;;2.40;;
15616;SDS011;7908;51.688;7.130;2022-07-29T12:50:51;5.05;;;2.63;;
15616;SDS011;7908;51.688;7.130;2022-07-29T12:53:29;3.78;;;2.38;;
15616;SDS011;7908;51.688;7.130;2022-07-29T12:56:05;6.40;;;2.10;;
15616;SDS011;7908;51.688;7.130;2022-07-29T12:59:13;3.17;;;1.98;;
15616;SDS011;7908;51.688;7.130;2022-07-29T13:01:46;3.53;;;2.05;;
15616;SDS011;7908;51.688;7.130;2022-07-29T13:04:27;4.18;;;1.77;;
15616;SDS011;7908;51.688;7.130;2022-07-29T13:07:10;4.75;;;2.30;;
15616;SDS011;7908;51.688;7.130;2022-07-29T13:09:42;4.47;;;1.83;;
15616;SDS011;7908;51.688;7.130;2022-07-29T13:12:13;3.20;;;1.67;;
15616;SDS011;7908;51.688;7.130;2022-07-29T13:14:44;4.55;;;1.50;;
15616;SDS011;7908;51.688;7.130;2022-07-29T13:17:19;3.63;;;1.67;;
15616;SDS011;7908;51.688;7.130;2022-07-29T13:20:06;4.53;;;1.85;;
15616;SDS011;7908;51.688;7.130;2022-07-29T13:22:40;4.38;;;1.70;;
15616;SDS011;7908;51.688;7.130;2022-07-29T13:25:10;2.80;;;1.67;;
15616;SDS011;7908;51.688;7.130;2022-07-29T13:27:40;6.00;;;1.90;;
15616;SDS011;7908;51.688;7.130;2022-07-29T13:30:11;5.90;;;1.83;;
15616;SDS011;7908;51.688;7.130;2022-07-29T13:32:42;7.05;;;1.90;;
15616;SDS011;7908;51.688;7.130;2022-07-29T13:35:16;5.32;;;2.05;;
15616;SDS011;7908;51.688;7.130;2022-07-29T13:37:49;4.57;;;2.10;;
15616;SDS011;7908;51.688;7.130;2022-07-29T13:40:19;5.60;;;2.47;;
15616;SDS011;7908;51.688;7.130;2022-07-29T13:42:49;6.03;;;2.10;;
15616;SDS011;7908;51.688;7.130;2022-07-29T13:45:25;5.10;;;2.22;;
15616;SDS011;7908;51.688;7.130;2022-07-29T13:47:59;5.72;;;2.00;;
15616;SDS011;7908;51.688;7.130;2022-07-29T13:50:28;4.93;;;2.42;;
15616;SDS011;7908;51.688;7.130;2022-07-29T13:53:00;5.93;;;2.30;;
15616;SDS011;7908;51.688;7.130;2022-07-29T13:55:29;4.50;;;2.20;;
15616;SDS011;7908;51.688;7.130;2022-07-29T13:57:59;2.95;;;1.83;;
15616;SDS011;7908;51.688;7.130;2022-07-29T14:00:36;8.60;;;2.08;;
15616;SDS011;7908;51.688;7.130;2022-07-29T14:03:08;5.20;;;1.77;;
15616;SDS011;7908;51.688;7.130;2022-07-29T14:05:37;3.88;;;2.13;;
15616;SDS011;7908;51.688;7.130;2022-07-29T14:08:10;4.10;;;2.33;;
15616;SDS011;7908;51.688;7.130;2022-07-29T14:10:41;5.55;;;2.35;;
15616;SDS011;7908;51.688;7.130;2022-07-29T14:13:11;8.27;;;2.30;;
15616;SDS011;7908;51.688;7.130;2022-07-29T14:15:51;6.07;;;2.25;;
15616;SDS011;7908;51.688;7.130;2022-07-29T14:18:21;6.10;;;2.53;;
15616;SDS011;7908;51.688;7.130;2022-07-29T14:20:58;4.80;;;2.58;;
15616;SDS011;7908;51.688;7.130;2022-07-29T14:23:32;9.80;;;2.00;;
15616;SDS011;7908;51.688;7.130;2022-07-29T14:26:09;7.93;;;2.25;;
15616;SDS011;7908;51.688;7.130;2022-07-29T14:28:50;4.35;;;1.80;;
15616;SDS011;7908;51.688;7.130;2022-07-29T14:31:19;7.68;;;2.38;;
15616;SDS011;7908;51.688;7.130;2022-07-29T14:33:48;6.60;;;2.28;;
15616;SDS011;7908;51.688;7.130;2022-07-29T14:36:22;5.97;;;2.50;;
15616;SDS011;7908;51.688;7.130;2022-07-29T14:38:53;4.97;;;2.25;;
15616;SDS011;7908;51.688;7.130;2022-07-29T14:41:22;10.88;;;2.50;;
15616;SDS011;7908;51.688;7.130;2022-07-29T14:43:57;7.13;;;2.60;;
15616;SDS011;7908;51.688;7.130;2022-07-29T14:46:29;2.80;;;1.75;;
15616;SDS011;7908;51.688;7.130;2022-07-29T14:48:58;3.42;;;2.10;;
15616;SDS011;7908;51.688;7.130;2022-07-29T14:51:27;4.63;;;2.20;;
15616;SDS011;7908;51.688;7.130;2022-07-29T14:54:02;4.72;;;1.85;;
15616;SDS011;7908;51.688;7.130;2022-07-29T14:56:32;5.15;;;2.33;;
15616;SDS011;7908;51.688;7.130;2022-07-29T14:59:06;4.88;;;2.15;;
15616;SDS011;7908;51.688;7.130;2022-07-29T15:01:36;3.63;;;2.70;;
15616;SDS011;7908;51.688;7.130;2022-07-29T15:04:05;7.82;;;2.80;;
15616;SDS011;7908;51.688;7.130;2022-07-29T15:06:40;6.68;;;3.05;;
15616;SDS011;7908;51.688;7.130;2022-07-29T15:09:13;5.00;;;2.50;;
15616;SDS011;7908;51.688;7.130;2022-07-29T15:11:48;6.78;;;2.40;;
15616;SDS011;7908;51.688;7.130;2022-07-29T15:14:29;4.35;;;2.10;;
15616;SDS011;7908;51.688;7.130;2022-07-29T15:16:59;8.48;;;3.13;;
15616;SDS011;7908;51.688;7.130;2022-07-29T15:19:30;5.35;;;2.30;;
15616;SDS011;7908;51.688;7.130;2022-07-29T15:22:03;4.78;;;2.05;;
15616;SDS011;7908;51.688;7.130;2022-07-29T15:24:37;4.93;;;2.38;;
15616;SDS011;7908;51.688;7.130;2022-07-29T15:27:08;7.20;;;2.85;;
15616;SDS011;7908;51.688;7.130;2022-07-29T15:29:40;8.70;;;2.42;;
15616;SDS011;7908;51.688;7.130;2022-07-29T15:32:11;5.90;;;2.60;;
15616;SDS011;7908;51.688;7.130;2022-07-29T15:34:43;4.78;;;2.85;;
15616;SDS011;7908;51.688;7.130;2022-07-29T15:37:14;10.85;;;3.47;;
15616;SDS011;7908;51.688;7.130;2022-07-29T15:39:47;11.52;;;3.10;;
15616;SDS011;7908;51.688;7.130;2022-07-29T15:42:16;5.28;;;3.00;;
15616;SDS011;7908;51.688;7.130;2022-07-29T15:44:47;6.32;;;3.22;;
15616;SDS011;7908;51.688;7.130;2022-07-29T15:47:23;3.60;;;2.92;;
15616;SDS011;7908;51.688;7.130;2022-07-29T15:49:56;4.63;;;2.95;;
15616;SDS011;7908;51.688;7.130;2022-07-29T15:52:24;5.20;;;2.55;;
15616;SDS011;7908;51.688;7.130;2022-07-29T15:55:01;6.43;;;3.53;;
15616;SDS011;7908;51.688;7.130;2022-07-29T15:57:30;5.70;;;2.80;;
15616;SDS011;7908;51.688;7.130;2022-07-29T15:59:59;6.70;;;2.83;;
15616;SDS011;7908;51.688;7.130;2022-07-29T16:02:28;6.72;;;3.13;;